Time;durP1;ratioP1;P1;durP2;ratioP2;P2;SDS_P1;SDS_P2;PMS_P1;PMS_P2;Temp;Humidity;BMP_temperature;BMP_pressure;BME280_temperature;BME280_humidity;BME280_pressure;Samples;Min_cycle;Max_cycle;Signal;HPM_P1;HPM_P2
2024/01/29 00:00:45;;;;;;;;;;;;;;;;;;5054239;28;20019;-42
2024/01/29 00:03:11;;;;;;;;;;;;;;;;;;5054249;28;19924;-41
2024/01/29 00:05:36;;;;;;;;;;;;;;;;;;5054403;28;20015;-41
2024/01/29 00:08:01;;;;;;;;;;;;;;;;;;5054215;28;19971;-40
2024/01/29 00:10:27;;;;;;;;;;;;;;;;;;5053989;28;19968;-42
2024/01/29 00:12:52;;;;;;;;;;;;;;;;;;5054275;28;20387;-40
2024/01/29 00:15:18;;;;;;;;;;;;;;;;;;5054168;28;20022;-42
2024/01/29 00:17:44;;;;;;;;;;;;;;;;;;5054205;28;19974;-42
2024/01/29 00:20:09;;;;;;;;;;;;;;;;;;5054267;28;19932;-42
2024/01/29 00:22:35;;;;;;;;;;;;;;;;;;5054180;28;19932;-43
2024/01/29 00:25:01;;;;;;;;;;;;;;;;;;5053724;28;19964;-41
2024/01/29 00:27:27;;;;;;;;;;;;;;;;;;5054098;28;19932;-43
2024/01/29 00:29:52;;;;;;;;;;;;;;;;;;5053723;28;19925;-42
2024/01/29 00:32:18;;;;;;;;;;;;;;;;;;5054127;28;20490;-41
2024/01/29 00:34:44;;;;;;;;;;;;;;;;;;5054148;28;20015;-41
2024/01/29 00:37:09;;;;;;;;;;;;;;;;;;5053932;28;20011;-44
2024/01/29 00:39:35;;;;;;;;;;;;;;;;;;5059806;28;19983;-40
2024/01/29 00:42:00;;;;;;;;;;;;;;;;;;5053544;28;19925;-41
2024/01/29 00:44:26;;;;;;;;;;;;;;;;;;5053762;28;20392;-42
2024/01/29 00:46:51;;;;;;;;;;;;;;;;;;5053303;28;20312;-43
2024/01/29 00:49:16;;;;;;;;;;;;;;;;;;5053106;28;20288;-41
2024/01/29 00:51:42;;;;;;;;;;;;;;;;;;5053054;28;20419;-43
2024/01/29 00:54:08;;;;;;;;;;;;;;;;;;5053455;28;20376;-43
2024/01/29 00:56:33;;;;;;;;;;;;;;;;;;5053497;28;19964;-44
2024/01/29 00:58:58;;;;;;;;;;;;;;;;;;5053658;28;19961;-43
2024/01/29 01:01:24;;;;;;;;;;;;;;;;;;5053296;28;19956;-41
2024/01/29 01:03:49;;;;;;;;;;;;;;;;;;5053592;28;20019;-43
2024/01/29 01:06:15;;;;;;;;;;;;;;;;;;5053597;28;20383;-40
2024/01/29 01:08:40;;;;;;;;;;;;;;;;;;5053400;28;20404;-42
2024/01/29 01:11:07;;;;;;;;;;;;;;;;;;5053392;28;19931;-42
2024/01/29 01:13:33;;;;;;;;;;;;;;;;;;5052974;28;19925;-41
2024/01/29 01:15:58;;;;;;;;;;;;;;;;;;5052017;28;20388;-40
2024/01/29 01:18:24;;;;;;;;;;;;;;;;;;5053206;28;19924;-45
2024/01/29 01:20:49;;;;;;;;;;;;;;;;;;5053277;28;20039;-42
2024/01/29 01:23:15;;;;;;;;;;;;;;;;;;5053374;28;19925;-41
2024/01/29 01:25:40;;;;;;;;;;;;;;;;;;5052835;28;19933;-40
2024/01/29 01:28:07;;;;;;;;;;;;;;;;;;5053103;28;19925;-41
2024/01/29 01:30:32;;;;;;;;;;;;;;;;;;5052851;28;19932;-42
2024/01/29 01:32:58;;;;;;;;;;;;;;;;;;5053282;28;19924;-41
2024/01/29 01:35:23;;;;;;;;;;;;;;;;;;5053085;28;20012;-42
2024/01/29 01:37:49;;;;;;;;;;;;;;;;;;5053050;28;19956;-40
2024/01/29 01:40:14;;;;;;;;;;;;;;;;;;5058254;28;19972;-41
2024/01/29 01:42:42;;;;;;;;;;;;;;;;;;5054653;28;20023;-41
2024/01/29 01:45:07;;;;;;;;;;;;;;;;;;5052866;28;19932;-40
2024/01/29 01:47:33;;;;;;;;;;;;;;;;;;5052777;28;19929;-40
2024/01/29 01:49:58;;;;;;;;;;;;;;;;;;5052771;28;20013;-42
2024/01/29 01:52:24;;;;;;;;;;;;;;;;;;5052691;28;19925;-40
2024/01/29 01:54:49;;;;;;;;;;;;;;;;;;5052557;28;19925;-40
2024/01/29 01:57:15;;;;;;;;;;;;;;;;;;5052668;28;19929;-41
2024/01/29 01:59:40;;;;;;;;;;;;;;;;;;5052379;28;20031;-40
2024/01/29 02:02:06;;;;;;;;;;;;;;;;;;5052809;28;19925;-43
2024/01/29 02:04:31;;;;;;;;;;;;;;;;;;5052682;28;19976;-44
2024/01/29 02:06:57;;;;;;;;;;;;;;;;;;5052649;28;19972;-42
2024/01/29 02:09:22;;;;;;;;;;;;;;;;;;5052588;28;19979;-42
2024/01/29 02:11:48;;;;;;;;;;;;;;;;;;5052364;28;19948;-43
2024/01/29 02:14:13;;;;;;;;;;;;;;;;;;5052458;28;20002;-41
2024/01/29 02:16:39;;;;;;;;;;;;;;;;;;5052183;28;19968;-41
2024/01/29 02:19:04;;;;;;;;;;;;;;;;;;5052407;28;19960;-40
2024/01/29 02:21:30;;;;;;;;;;;;;;;;;;5052343;28;19932;-42
2024/01/29 02:23:55;;;;;;;;;;;;;;;;;;5051795;28;19932;-41
2024/01/29 02:26:21;;;;;;;;;;;;;;;;;;5052693;28;19929;-46
2024/01/29 02:28:46;;;;;;;;;;;;;;;;;;5058940;28;19983;-40
2024/01/29 02:31:13;;;;;;;;;;;;;;;;;;5058567;28;19975;-40
2024/01/29 02:33:38;;;;;;;;;;;;;;;;;;5058990;28;19929;-40
2024/01/29 02:36:04;;;;;;;;;;;;;;;;;;5058978;28;20117;-44
2024/01/29 02:38:29;;;;;;;;;;;;;;;;;;5058976;28;19925;-41
2024/01/29 02:40:54;;;;;;;;;;;;;;;;;;5058820;28;19960;-41
2024/01/29 02:43:20;;;;;;;;;;;;;;;;;;5074547;28;19928;-42
2024/01/29 02:45:47;;;;;;;;;;;;;;;;;;5078487;28;19932;-42
2024/01/29 02:48:12;;;;;;;;;;;;;;;;;;5078386;28;20337;-42
2024/01/29 02:50:38;;;;;;;;;;;;;;;;;;5078743;28;20015;-41
2024/01/29 02:53:03;;;;;;;;;;;;;;;;;;5078306;28;19925;-43
2024/01/29 02:55:29;;;;;;;;;;;;;;;;;;5077827;28;20431;-41
2024/01/29 02:57:54;;;;;;;;;;;;;;;;;;5078479;28;19924;-41
2024/01/29 03:00:20;;;;;;;;;;;;;;;;;;5078294;28;20006;-42
2024/01/29 03:02:45;;;;;;;;;;;;;;;;;;5078561;28;19925;-42
2024/01/29 03:05:10;;;;;;;;;;;;;;;;;;5078706;28;19987;-41
2024/01/29 03:07:36;;;;;;;;;;;;;;;;;;5078636;28;19924;-43
2024/01/29 03:10:01;;;;;;;;;;;;;;;;;;5078684;28;19967;-41
2024/01/29 03:12:27;;;;;;;;;;;;;;;;;;5078617;28;20009;-42
2024/01/29 03:14:52;;;;;;;;;;;;;;;;;;5078288;28;20362;-42
2024/01/29 03:17:18;;;;;;;;;;;;;;;;;;5078428;28;19956;-41
2024/01/29 03:19:43;;;;;;;;;;;;;;;;;;5078358;28;19924;-41
2024/01/29 03:22:09;;;;;;;;;;;;;;;;;;5078296;28;20018;-41
2024/01/29 03:24:34;;;;;;;;;;;;;;;;;;5077786;28;19932;-42
2024/01/29 03:27:00;;;;;;;;;;;;;;;;;;5078266;28;20009;-42
2024/01/29 03:29:25;;;;;;;;;;;;;;;;;;5077944;28;20033;-40
2024/01/29 03:31:51;;;;;;;;;;;;;;;;;;5078245;28;19935;-41
2024/01/29 03:34:16;;;;;;;;;;;;;;;;;;5067470;28;19932;-41
2024/01/29 03:36:42;;;;;;;;;;;;;;;;;;5058228;28;19924;-42
2024/01/29 03:39:07;;;;;;;;;;;;;;;;;;5055477;28;19979;-42
2024/01/29 03:41:34;;;;;;;;;;;;;;;;;;5055044;28;20024;-40
2024/01/29 03:44:01;;;;;;;;;;;;;;;;;;5059187;28;19976;-43
2024/01/29 03:46:26;;;;;;;;;;;;;;;;;;5054646;28;20333;-41
2024/01/29 03:48:52;;;;;;;;;;;;;;;;;;5054568;28;19994;-42
2024/01/29 03:51:17;;;;;;;;;;;;;;;;;;5054604;28;20005;-44
2024/01/29 03:53:43;;;;;;;;;;;;;;;;;;5054603;28;19964;-42
2024/01/29 03:56:08;;;;;;;;;;;;;;;;;;5054293;28;19972;-42
2024/01/29 03:58:33;;;;;;;;;;;;;;;;;;5054534;28;19952;-42
2024/01/29 04:00:59;;;;;;;;;;;;;;;;;;5054108;28;20265;-41
2024/01/29 04:03:24;;;;;;;;;;;;;;;;;;5054540;28;20059;-43
2024/01/29 04:05:50;;;;;;;;;;;;;;;;;;5054542;28;20406;-42
2024/01/29 04:08:15;;;;;;;;;;;;;;;;;;5054038;28;20011;-41
2024/01/29 04:10:41;;;;;;;;;;;;;;;;;;5054460;28;19971;-42
2024/01/29 04:13:07;;;;;;;;;;;;;;;;;;5054464;28;20007;-41
2024/01/29 04:15:33;;;;;;;;;;;;;;;;;;5054112;28;19932;-41
2024/01/29 04:17:58;;;;;;;;;;;;;;;;;;5054223;28;19956;-42
2024/01/29 04:20:24;;;;;;;;;;;;;;;;;;5054138;28;19924;-41
2024/01/29 04:22:49;;;;;;;;;;;;;;;;;;5054145;28;19939;-41
2024/01/29 04:25:15;;;;;;;;;;;;;;;;;;5053739;28;19925;-43
2024/01/29 04:27:41;;;;;;;;;;;;;;;;;;5053928;28;19955;-43
2024/01/29 04:30:06;;;;;;;;;;;;;;;;;;5053816;28;19925;-44
2024/01/29 04:32:32;;;;;;;;;;;;;;;;;;5053926;28;19924;-42
2024/01/29 04:34:57;;;;;;;;;;;;;;;;;;5054060;28;19963;-44
2024/01/29 04:37:24;;;;;;;;;;;;;;;;;;5053994;28;19925;-42
2024/01/29 04:39:49;;;;;;;;;;;;;;;;;;5053949;28;20280;-41
2024/01/29 04:42:15;;;;;;;;;;;;;;;;;;5054041;28;20011;-40
2024/01/29 04:44:40;;;;;;;;;;;;;;;;;;5053986;28;19929;-42
2024/01/29 04:47:06;;;;;;;;;;;;;;;;;;5054958;28;20019;-40
2024/01/29 04:49:31;;;;;;;;;;;;;;;;;;5053338;28;20344;-43
2024/01/29 04:51:56;;;;;;;;;;;;;;;;;;5052661;28;20050;-41
2024/01/29 04:54:22;;;;;;;;;;;;;;;;;;5053473;28;19960;-42
2024/01/29 04:56:47;;;;;;;;;;;;;;;;;;5053598;28;19931;-42
2024/01/29 04:59:13;;;;;;;;;;;;;;;;;;5053441;28;19928;-41
2024/01/29 05:01:38;;;;;;;;;;;;;;;;;;5052864;28;19964;-41
2024/01/29 05:04:04;;;;;;;;;;;;;;;;;;5053119;28;20014;-40
2024/01/29 05:06:30;;;;;;;;;;;;;;;;;;5053505;28;19951;-41
2024/01/29 05:08:55;;;;;;;;;;;;;;;;;;5053000;28;20295;-43
2024/01/29 05:11:21;;;;;;;;;;;;;;;;;;5053421;28;19935;-41
2024/01/29 05:13:46;;;;;;;;;;;;;;;;;;5053527;28;20011;-41
2024/01/29 05:16:11;;;;;;;;;;;;;;;;;;5053405;28;19932;-42
2024/01/29 05:18:37;;;;;;;;;;;;;;;;;;5053162;28;19955;-40
2024/01/29 05:21:03;;;;;;;;;;;;;;;;;;5053275;28;19978;-40
2024/01/29 05:23:28;;;;;;;;;;;;;;;;;;5053151;28;19947;-43
2024/01/29 05:25:54;;;;;;;;;;;;;;;;;;5052722;28;20353;-42
2024/01/29 05:28:20;;;;;;;;;;;;;;;;;;5052983;28;19979;-42
2024/01/29 05:30:45;;;;;;;;;;;;;;;;;;5052536;28;19924;-42
2024/01/29 05:33:11;;;;;;;;;;;;;;;;;;5052821;28;19929;-41
2024/01/29 05:35:50;;;;;;;;;;;;;;;;;;5053113;28;19924;-43
2024/01/29 05:38:15;;;;;;;;;;;;;;;;;;5053022;28;20012;-41
2024/01/29 05:40:41;;;;;;;;;;;;;;;;;;5052993;28;19936;-40
2024/01/29 05:43:06;;;;;;;;;;;;;;;;;;5052805;28;20003;-41
2024/01/29 05:45:32;;;;;;;;;;;;;;;;;;5059342;28;19998;-40
2024/01/29 05:47:57;;;;;;;;;;;;;;;;;;5069179;28;19925;-40
2024/01/29 05:50:23;;;;;;;;;;;;;;;;;;5072719;28;19924;-40
2024/01/29 05:52:48;;;;;;;;;;;;;;;;;;5071310;28;19959;-42
2024/01/29 05:55:14;;;;;;;;;;;;;;;;;;5064181;28;20414;-43
2024/01/29 05:57:39;;;;;;;;;;;;;;;;;;5067916;28;19924;-42
2024/01/29 06:00:09;;;;;;;;;;;;;;;;;;5070553;28;19924;-41
2024/01/29 06:02:34;;;;;;;;;;;;;;;;;;5059126;28;19936;-42
2024/01/29 06:05:00;;;;;;;;;;;;;;;;;;5070889;28;20011;-40
2024/01/29 06:07:25;;;;;;;;;;;;;;;;;;5070151;28;19925;-41
2024/01/29 06:09:51;;;;;;;;;;;;;;;;;;5056102;28;20019;-40
2024/01/29 06:12:16;;;;;;;;;;;;;;;;;;5066892;28;19971;-40
2024/01/29 06:14:42;;;;;;;;;;;;;;;;;;5070803;28;20023;-40
2024/01/29 06:17:07;;;;;;;;;;;;;;;;;;5071437;28;20415;-41
2024/01/29 06:19:33;;;;;;;;;;;;;;;;;;5056183;28;20023;-41
2024/01/29 06:22:01;;;;;;;;;;;;;;;;;;5070611;28;19939;-40
2024/01/29 06:24:27;;;;;;;;;;;;;;;;;;5070968;28;20015;-42
2024/01/29 06:26:52;;;;;;;;;;;;;;;;;;5061639;28;19960;-43
2024/01/29 06:29:18;;;;;;;;;;;;;;;;;;5064047;28;20054;-42
2024/01/29 06:31:43;;;;;;;;;;;;;;;;;;5070778;28;20348;-41
2024/01/29 06:34:09;;;;;;;;;;;;;;;;;;5053855;28;19924;-40
2024/01/29 06:36:35;;;;;;;;;;;;;;;;;;5066758;28;20313;-44
2024/01/29 06:39:00;;;;;;;;;;;;;;;;;;5056953;28;19929;-41
2024/01/29 06:41:26;;;;;;;;;;;;;;;;;;5064707;28;19976;-44
2024/01/29 06:43:51;;;;;;;;;;;;;;;;;;5063825;28;20011;-41
2024/01/29 06:46:17;;;;;;;;;;;;;;;;;;5067188;28;20283;-51
2024/01/29 06:48:42;;;;;;;;;;;;;;;;;;5058841;28;19925;-41
2024/01/29 06:51:08;;;;;;;;;;;;;;;;;;5057035;28;20384;-43
2024/01/29 06:53:33;;;;;;;;;;;;;;;;;;5064514;28;19924;-44
2024/01/29 06:55:59;;;;;;;;;;;;;;;;;;5066028;28;20027;-40
2024/01/29 06:58:24;;;;;;;;;;;;;;;;;;5057559;28;19928;-42
2024/01/29 07:00:50;;;;;;;;;;;;;;;;;;5055734;28;20024;-44
2024/01/29 07:03:16;;;;;;;;;;;;;;;;;;5057170;28;19932;-43
2024/01/29 07:05:41;;;;;;;;;;;;;;;;;;5062481;28;19960;-41
2024/01/29 07:08:07;;;;;;;;;;;;;;;;;;5056924;28;20440;-41
2024/01/29 07:10:32;;;;;;;;;;;;;;;;;;5059574;28;20315;-42
2024/01/29 07:12:58;;;;;;;;;;;;;;;;;;5060480;28;19960;-41
2024/01/29 07:15:23;;;;;;;;;;;;;;;;;;5047326;28;19936;-41
2024/01/29 07:17:49;;;;;;;;;;;;;;;;;;5048100;28;20025;-43
2024/01/29 07:20:14;;;;;;;;;;;;;;;;;;5051462;28;20020;-42
2024/01/29 07:22:42;;;;;;;;;;;;;;;;;;5052097;28;19985;-41
2024/01/29 07:25:08;;;;;;;;;;;;;;;;;;5050622;28;20420;-54
2024/01/29 07:27:33;;;;;;;;;;;;;;;;;;5051617;28;19929;-54
2024/01/29 07:29:59;;;;;;;;;;;;;;;;;;5049527;28;20024;-53
2024/01/29 07:32:31;;;;;;;;;;;;;;;;;;5053633;28;19951;-54
2024/01/29 07:34:56;;;;;;;;;;;;;;;;;;5048841;28;19924;-54
2024/01/29 07:37:22;;;;;;;;;;;;;;;;;;5052168;28;19928;-53
2024/01/29 07:39:47;;;;;;;;;;;;;;;;;;5049152;28;19933;-54
2024/01/29 07:42:13;;;;;;;;;;;;;;;;;;5053212;28;19979;-54
2024/01/29 07:44:38;;;;;;;;;;;;;;;;;;5051353;28;19925;-54
2024/01/29 07:47:04;;;;;;;;;;;;;;;;;;5052149;28;20417;-53
2024/01/29 07:49:31;;;;;;;;;;;;;;;;;;5054288;28;19932;-57
2024/01/29 07:51:57;;;;;;;;;;;;;;;;;;5053027;28;19986;-57
2024/01/29 07:54:22;;;;;;;;;;;;;;;;;;5053677;28;19928;-56
2024/01/29 07:56:48;;;;;;;;;;;;;;;;;;5048053;28;19929;-59
2024/01/29 07:59:13;;;;;;;;;;;;;;;;;;5050810;28;19952;-59
2024/01/29 08:01:39;;;;;;;;;;;;;;;;;;5047194;28;19939;-59
2024/01/29 08:04:05;;;;;;;;;;;;;;;;;;5044575;28;20887;-59
2024/01/29 08:06:30;;;;;;;;;;;;;;;;;;5046050;28;20663;-57
2024/01/29 08:08:56;;;;;;;;;;;;;;;;;;5042433;28;19945;-58
2024/01/29 08:11:21;;;;;;;;;;;;;;;;;;5045198;28;19987;-58
2024/01/29 08:13:47;;;;;;;;;;;;;;;;;;5046437;28;19971;-57
2024/01/29 08:16:12;;;;;;;;;;;;;;;;;;5045415;28;19947;-56
2024/01/29 08:18:38;;;;;;;;;;;;;;;;;;5045154;28;20145;-56
2024/01/29 08:21:04;;;;;;;;;;;;;;;;;;5046745;28;19929;-56
2024/01/29 08:23:30;;;;;;;;;;;;;;;;;;5047204;28;19932;-57
2024/01/29 08:25:55;;;;;;;;;;;;;;;;;;5045156;28;19968;-57
2024/01/29 08:28:21;;;;;;;;;;;;;;;;;;5046283;28;20603;-56
2024/01/29 08:30:46;;;;;;;;;;;;;;;;;;5039923;28;19932;-57
2024/01/29 08:33:12;;;;;;;;;;;;;;;;;;5044638;28;20047;-60
2024/01/29 08:35:37;;;;;;;;;;;;;;;;;;5046698;28;19932;-58
2024/01/29 08:38:03;;;;;;;;;;;;;;;;;;5044164;28;19933;-59
2024/01/29 08:40:31;;;;;;;;;;;;;;;;;;5046082;28;19932;-59
2024/01/29 08:42:57;;;;;;;;;;;;;;;;;;5045138;28;19970;-59
2024/01/29 08:45:23;;;;;;;;;;;;;;;;;;5045870;28;19933;-56
2024/01/29 08:47:48;;;;;;;;;;;;;;;;;;5044879;28;20423;-55
2024/01/29 08:50:14;;;;;;;;;;;;;;;;;;5041966;28;19939;-57
2024/01/29 08:52:39;;;;;;;;;;;;;;;;;;5045954;28;19932;-56
2024/01/29 08:55:06;;;;;;;;;;;;;;;;;;5042653;28;20401;-56
2024/01/29 08:57:32;;;;;;;;;;;;;;;;;;5045303;28;19933;-56
2024/01/29 08:59:57;;;;;;;;;;;;;;;;;;5052249;28;20329;-56
2024/01/29 09:02:27;;;;;;;;;;;;;;;;;;5053880;28;19983;-57
2024/01/29 09:04:53;;;;;;;;;;;;;;;;;;5053084;28;19943;-56
2024/01/29 09:07:19;;;;;;;;;;;;;;;;;;5053418;28;20367;-56
2024/01/29 09:09:46;;;;;;;;;;;;;;;;;;4986518;28;19925;-56
2024/01/29 09:12:11;;;;;;;;;;;;;;;;;;4990545;28;20324;-57
2024/01/29 09:14:37;;;;;;;;;;;;;;;;;;4990502;28;20405;-56
2024/01/29 09:17:02;;;;;;;;;;;;;;;;;;4984690;28;20713;-57
2024/01/29 09:19:28;;;;;;;;;;;;;;;;;;4989906;28;19925;-56
2024/01/29 09:21:53;;;;;;;;;;;;;;;;;;4989278;28;19951;-57
2024/01/29 09:24:19;;;;;;;;;;;;;;;;;;4986349;28;19926;-58
2024/01/29 09:26:44;;;;;;;;;;;;;;;;;;4991790;28;20011;-59
2024/01/29 09:29:10;;;;;;;;;;;;;;;;;;5055247;28;19925;-58
2024/01/29 09:31:35;;;;;;;;;;;;;;;;;;5057234;28;19925;-56
2024/01/29 09:34:03;;;;;;;;;;;;;;;;;;5053756;28;19924;-58
2024/01/29 09:36:28;;;;;;;;;;;;;;;;;;5051254;28;19978;-58
2024/01/29 09:38:56;;;;;;;;;;;;;;;;;;5052094;28;19932;-57
2024/01/29 09:41:21;;;;;;;;;;;;;;;;;;5052640;28;19951;-57
2024/01/29 09:43:47;;;;;;;;;;;;;;;;;;5049658;28;20227;-57
2024/01/29 09:46:14;;;;;;;;;;;;;;;;;;5054856;28;19932;-57
2024/01/29 09:48:39;;;;;;;;;;;;;;;;;;5056376;28;20507;-56
2024/01/29 09:51:05;;;;;;;;;;;;;;;;;;5055993;28;19975;-56
2024/01/29 09:53:30;;;;;;;;;;;;;;;;;;5054617;28;19934;-57
2024/01/29 09:55:56;;;;;;;;;;;;;;;;;;5051250;28;19928;-57
2024/01/29 09:58:22;;;;;;;;;;;;;;;;;;5057050;28;19928;-56
2024/01/29 10:00:47;;;;;;;;;;;;;;;;;;5054241;28;20474;-57
2024/01/29 10:03:13;;;;;;;;;;;;;;;;;;5046607;28;19932;-57
2024/01/29 10:05:38;;;;;;;;;;;;;;;;;;5052314;28;20026;-57
2024/01/29 10:08:04;;;;;;;;;;;;;;;;;;5049408;28;19935;-57
2024/01/29 10:10:29;;;;;;;;;;;;;;;;;;5053410;28;20430;-57
2024/01/29 10:12:55;;;;;;;;;;;;;;;;;;5051121;28;19928;-56
2024/01/29 10:15:20;;;;;;;;;;;;;;;;;;5051443;28;19932;-57
2024/01/29 10:17:46;;;;;;;;;;;;;;;;;;5050457;28;19933;-56
2024/01/29 10:20:11;;;;;;;;;;;;;;;;;;5055249;28;19959;-56
2024/01/29 10:22:37;;;;;;;;;;;;;;;;;;5048977;28;19924;-56
2024/01/29 10:25:02;;;;;;;;;;;;;;;;;;5051635;28;19967;-57
2024/01/29 10:27:28;;;;;;;;;;;;;;;;;;5058658;28;20168;-57
2024/01/29 10:29:53;;;;;;;;;;;;;;;;;;5055273;28;19935;-50
2024/01/29 10:32:19;;;;;;;;;;;;;;;;;;5057029;28;20291;-57
2024/01/29 10:34:44;;;;;;;;;;;;;;;;;;5051860;28;19995;-57
2024/01/29 10:37:10;;;;;;;;;;;;;;;;;;5056789;28;20633;-57
2024/01/29 10:39:36;;;;;;;;;;;;;;;;;;5045560;28;20378;-55
2024/01/29 10:42:04;;;;;;;;;;;;;;;;;;5048402;28;19928;-56
2024/01/29 10:44:30;;;;;;;;;;;;;;;;;;5051950;28;19924;-56
2024/01/29 10:46:55;;;;;;;;;;;;;;;;;;5035917;28;19933;-57
2024/01/29 10:49:20;;;;;;;;;;;;;;;;;;5045113;28;20393;-56
2024/01/29 10:51:46;;;;;;;;;;;;;;;;;;5045006;28;19924;-56
2024/01/29 10:54:11;;;;;;;;;;;;;;;;;;5044099;28;20553;-56
2024/01/29 10:56:37;;;;;;;;;;;;;;;;;;5049556;28;20359;-57
2024/01/29 10:59:02;;;;;;;;;;;;;;;;;;5052457;28;19932;-57
2024/01/29 11:01:28;;;;;;;;;;;;;;;;;;5049920;28;19962;-56
2024/01/29 11:03:54;;;;;;;;;;;;;;;;;;5051801;28;19932;-57
2024/01/29 11:06:20;;;;;;;;;;;;;;;;;;5048371;28;20194;-57
2024/01/29 11:08:45;;;;;;;;;;;;;;;;;;5048843;28;19937;-56
2024/01/29 11:11:10;;;;;;;;;;;;;;;;;;5050326;28;20012;-57
2024/01/29 11:13:36;;;;;;;;;;;;;;;;;;5048465;28;20412;-57
2024/01/29 11:16:01;;;;;;;;;;;;;;;;;;5051006;28;20019;-57
2024/01/29 11:18:27;;;;;;;;;;;;;;;;;;5051484;28;19924;-56
2024/01/29 11:20:52;;;;;;;;;;;;;;;;;;5051833;28;20482;-56
2024/01/29 11:23:22;;;;;;;;;;;;;;;;;;5049899;28;19940;-56
2024/01/29 11:25:53;;;;;;;;;;;;;;;;;;5048631;28;20303;-56
2024/01/29 11:28:18;;;;;;;;;;;;;;;;;;5049638;28;20365;-56
2024/01/29 11:30:44;;;;;;;;;;;;;;;;;;5050020;28;19996;-57
2024/01/29 11:33:11;;;;;;;;;;;;;;;;;;5048299;28;20687;-57
2024/01/29 11:35:36;;;;;;;;;;;;;;;;;;5049463;28;20027;-56
2024/01/29 11:38:08;;;;;;;;;;;;;;;;;;5047947;28;20371;-57
2024/01/29 11:40:34;;;;;;;;;;;;;;;;;;5049968;28;20302;-57
2024/01/29 11:42:59;;;;;;;;;;;;;;;;;;5051576;28;19929;-57
2024/01/29 11:45:25;;;;;;;;;;;;;;;;;;5049784;28;20365;-57
2024/01/29 11:47:50;;;;;;;;;;;;;;;;;;5048560;28;19971;-56
2024/01/29 11:50:16;;;;;;;;;;;;;;;;;;5044335;28;20300;-56
2024/01/29 11:52:41;;;;;;;;;;;;;;;;;;5051775;28;20336;-56
2024/01/29 11:55:06;;;;;;;;;;;;;;;;;;5047146;28;19933;-57
2024/01/29 11:57:32;;;;;;;;;;;;;;;;;;5046261;28;20369;-50
2024/01/29 11:59:58;;;;;;;;;;;;;;;;;;5044003;28;20380;-57
2024/01/29 12:02:23;;;;;;;;;;;;;;;;;;5048535;28;20114;-58
2024/01/29 12:04:49;;;;;;;;;;;;;;;;;;5045535;28;19925;-57
2024/01/29 12:07:14;;;;;;;;;;;;;;;;;;5048312;28;20376;-57
2024/01/29 12:09:40;;;;;;;;;;;;;;;;;;5052354;28;20024;-57
2024/01/29 12:12:05;;;;;;;;;;;;;;;;;;5050471;28;19967;-57
2024/01/29 12:14:31;;;;;;;;;;;;;;;;;;5049203;28;20308;-57
2024/01/29 12:16:57;;;;;;;;;;;;;;;;;;5050244;28;19924;-58
2024/01/29 12:19:23;;;;;;;;;;;;;;;;;;5055226;28;20381;-55
2024/01/29 12:21:48;;;;;;;;;;;;;;;;;;5050888;28;20055;-57
2024/01/29 12:24:19;;;;;;;;;;;;;;;;;;5051488;28;19992;-57
2024/01/29 12:26:44;;;;;;;;;;;;;;;;;;5051406;28;19929;-57
2024/01/29 12:29:10;;;;;;;;;;;;;;;;;;5050402;28;20415;-57
2024/01/29 12:31:38;;;;;;;;;;;;;;;;;;5054613;28;19968;-57
2024/01/29 12:34:03;;;;;;;;;;;;;;;;;;5049198;28;19940;-57
2024/01/29 12:36:29;;;;;;;;;;;;;;;;;;5053735;28;20140;-56
2024/01/29 12:38:57;;;;;;;;;;;;;;;;;;5053196;28;20026;-57
2024/01/29 12:41:24;;;;;;;;;;;;;;;;;;5055134;28;19928;-56
2024/01/29 12:43:50;;;;;;;;;;;;;;;;;;5047246;28;20950;-56
2024/01/29 12:46:16;;;;;;;;;;;;;;;;;;5052560;28;20330;-56
2024/01/29 12:48:41;;;;;;;;;;;;;;;;;;5055947;28;19950;-56
2024/01/29 12:51:07;;;;;;;;;;;;;;;;;;5052521;28;19940;-56
2024/01/29 12:53:33;;;;;;;;;;;;;;;;;;5057458;28;20034;-56
2024/01/29 12:55:58;;;;;;;;;;;;;;;;;;5054334;28;20012;-56
2024/01/29 12:58:24;;;;;;;;;;;;;;;;;;5049074;28;20343;-57
2024/01/29 13:00:51;;;;;;;;;;;;;;;;;;5051747;28;20019;-57
2024/01/29 13:03:16;;;;;;;;;;;;;;;;;;5048474;28;19978;-57
2024/01/29 13:05:41;;;;;;;;;;;;;;;;;;5051471;28;20318;-56
2024/01/29 13:08:07;;;;;;;;;;;;;;;;;;5057415;28;20032;-57
2024/01/29 13:10:32;;;;;;;;;;;;;;;;;;5054436;28;20019;-57
2024/01/29 13:12:58;;;;;;;;;;;;;;;;;;5058752;28;19947;-57
2024/01/29 13:15:24;;;;;;;;;;;;;;;;;;5055622;28;20463;-56
2024/01/29 13:17:49;;;;;;;;;;;;;;;;;;5056651;28;19971;-56
2024/01/29 13:20:15;;;;;;;;;;;;;;;;;;5059018;28;19976;-59
2024/01/29 13:22:40;;;;;;;;;;;;;;;;;;5059789;28;19933;-57
2024/01/29 13:25:05;;;;;;;;;;;;;;;;;;5057987;28;19924;-57
2024/01/29 13:27:31;;;;;;;;;;;;;;;;;;5056186;28;20840;-53
2024/01/29 13:29:57;;;;;;;;;;;;;;;;;;5031921;28;19932;-56
2024/01/29 13:32:23;;;;;;;;;;;;;;;;;;5057839;28;19984;-56
2024/01/29 13:34:48;;;;;;;;;;;;;;;;;;5054649;28;19924;-57
2024/01/29 13:37:14;;;;;;;;;;;;;;;;;;5051898;28;19939;-56
2024/01/29 13:39:39;;;;;;;;;;;;;;;;;;5048318;28;20065;-57
2024/01/29 13:42:05;;;;;;;;;;;;;;;;;;5048177;28;20367;-57
2024/01/29 13:44:30;;;;;;;;;;;;;;;;;;5047040;28;20024;-57
2024/01/29 13:46:56;;;;;;;;;;;;;;;;;;5047653;28;19924;-56
2024/01/29 13:49:21;;;;;;;;;;;;;;;;;;5052574;28;19972;-58
2024/01/29 13:51:46;;;;;;;;;;;;;;;;;;5055571;28;20504;-57
2024/01/29 13:54:12;;;;;;;;;;;;;;;;;;5050950;28;20092;-56
2024/01/29 13:56:38;;;;;;;;;;;;;;;;;;5057647;28;19924;-57
2024/01/29 13:59:04;;;;;;;;;;;;;;;;;;5057440;28;19976;-57
2024/01/29 14:01:30;;;;;;;;;;;;;;;;;;5053315;28;19929;-57
2024/01/29 14:03:56;;;;;;;;;;;;;;;;;;5049231;28;19924;-57
2024/01/29 14:06:21;;;;;;;;;;;;;;;;;;5050513;28;19929;-56
2024/01/29 14:08:47;;;;;;;;;;;;;;;;;;5055151;28;19932;-57
2024/01/29 14:11:12;;;;;;;;;;;;;;;;;;5053954;28;20008;-56
2024/01/29 14:13:38;;;;;;;;;;;;;;;;;;5045786;28;20557;-52
2024/01/29 14:16:04;;;;;;;;;;;;;;;;;;5051061;28;19935;-56
2024/01/29 14:18:30;;;;;;;;;;;;;;;;;;5047998;28;20215;-58
2024/01/29 14:20:56;;;;;;;;;;;;;;;;;;5049546;28;19925;-58
2024/01/29 14:23:21;;;;;;;;;;;;;;;;;;5053818;28;20369;-58
2024/01/29 14:25:47;;;;;;;;;;;;;;;;;;5046586;28;20023;-58
2024/01/29 14:28:12;;;;;;;;;;;;;;;;;;5056673;28;19925;-58
2024/01/29 14:30:38;;;;;;;;;;;;;;;;;;5060027;28;19982;-59
2024/01/29 14:33:03;;;;;;;;;;;;;;;;;;5061854;28;19933;-59
2024/01/29 14:35:29;;;;;;;;;;;;;;;;;;5056219;28;19933;-56
2024/01/29 14:37:54;;;;;;;;;;;;;;;;;;5060947;28;20396;-56
2024/01/29 14:40:20;;;;;;;;;;;;;;;;;;5062547;28;19924;-56
2024/01/29 14:42:46;;;;;;;;;;;;;;;;;;5058918;28;20443;-56
2024/01/29 14:45:11;;;;;;;;;;;;;;;;;;5061293;28;19928;-56
2024/01/29 14:47:37;;;;;;;;;;;;;;;;;;5060503;28;20019;-57
2024/01/29 14:50:03;;;;;;;;;;;;;;;;;;5063047;28;19935;-56
2024/01/29 14:52:29;;;;;;;;;;;;;;;;;;5060541;28;19928;-56
2024/01/29 14:54:54;;;;;;;;;;;;;;;;;;5041121;28;21091;-55
2024/01/29 14:57:20;;;;;;;;;;;;;;;;;;5060024;28;19995;-57
2024/01/29 14:59:45;;;;;;;;;;;;;;;;;;5060187;28;19929;-58
2024/01/29 15:02:11;;;;;;;;;;;;;;;;;;5062766;28;19931;-57
2024/01/29 15:04:36;;;;;;;;;;;;;;;;;;5058242;28;20007;-57
2024/01/29 15:07:03;;;;;;;;;;;;;;;;;;5061428;28;19929;-57
2024/01/29 15:09:30;;;;;;;;;;;;;;;;;;5063606;28;19970;-57
2024/01/29 15:11:55;;;;;;;;;;;;;;;;;;5063538;28;19924;-57
2024/01/29 15:14:21;;;;;;;;;;;;;;;;;;5061393;28;20027;-57
2024/01/29 15:16:46;;;;;;;;;;;;;;;;;;5058977;28;19975;-58
2024/01/29 15:19:11;;;;;;;;;;;;;;;;;;5060893;28;20022;-56
2024/01/29 15:21:37;;;;;;;;;;;;;;;;;;5061913;28;20017;-57
2024/01/29 15:24:02;;;;;;;;;;;;;;;;;;5055184;28;19963;-57
2024/01/29 15:26:28;;;;;;;;;;;;;;;;;;5058784;28;20032;-57
2024/01/29 15:28:54;;;;;;;;;;;;;;;;;;5057076;28;19932;-54
2024/01/29 15:31:19;;;;;;;;;;;;;;;;;;5061915;28;20328;-53
2024/01/29 15:33:46;;;;;;;;;;;;;;;;;;5059528;28;19933;-56
2024/01/29 15:36:15;;;;;;;;;;;;;;;;;;5064521;28;19932;-57
2024/01/29 15:38:41;;;;;;;;;;;;;;;;;;5061667;28;19931;-57
2024/01/29 15:41:11;;;;;;;;;;;;;;;;;;5064781;28;19952;-56
2024/01/29 15:43:37;;;;;;;;;;;;;;;;;;5054774;28;19940;-57
2024/01/29 15:46:02;;;;;;;;;;;;;;;;;;5048596;28;20327;-57
2024/01/29 15:48:28;;;;;;;;;;;;;;;;;;5049505;28;20316;-57
2024/01/29 15:50:57;;;;;;;;;;;;;;;;;;5049908;28;19929;-58
2024/01/29 15:53:22;;;;;;;;;;;;;;;;;;5048926;28;19982;-59
2024/01/29 15:55:47;;;;;;;;;;;;;;;;;;5048046;28;19925;-59
2024/01/29 15:58:13;;;;;;;;;;;;;;;;;;5049412;28;20527;-58
2024/01/29 16:00:38;;;;;;;;;;;;;;;;;;5050179;28;19928;-55
2024/01/29 16:03:04;;;;;;;;;;;;;;;;;;5049590;28;19985;-56
2024/01/29 16:05:30;;;;;;;;;;;;;;;;;;5047295;28;19983;-57
2024/01/29 16:07:56;;;;;;;;;;;;;;;;;;5049611;28;19929;-56
2024/01/29 16:10:21;;;;;;;;;;;;;;;;;;5049698;28;19940;-59
2024/01/29 16:12:47;;;;;;;;;;;;;;;;;;5050081;28;19928;-57
2024/01/29 16:15:14;;;;;;;;;;;;;;;;;;5048994;28;20039;-57
2024/01/29 16:17:40;;;;;;;;;;;;;;;;;;5049762;28;19952;-57
2024/01/29 16:20:07;;;;;;;;;;;;;;;;;;5049546;28;20027;-59
2024/01/29 16:22:32;;;;;;;;;;;;;;;;;;5049388;28;19978;-58
2024/01/29 16:24:58;;;;;;;;;;;;;;;;;;5052010;28;20015;-58
2024/01/29 16:27:23;;;;;;;;;;;;;;;;;;5050052;28;20004;-58
2024/01/29 16:29:49;;;;;;;;;;;;;;;;;;5048897;28;20434;-58
2024/01/29 16:32:14;;;;;;;;;;;;;;;;;;5049744;28;20340;-58
2024/01/29 16:34:39;;;;;;;;;;;;;;;;;;5052077;28;20407;-58